createdAt,value
2022-12-15T00:00:14.861Z,83.60
2022-12-15T00:03:26.276Z,84.40
2022-12-15T00:06:13.548Z,88.40
2022-12-15T00:09:00.447Z,84.10
2022-12-15T00:11:47.607Z,78.80
2022-12-15T00:14:35.042Z,83.20
2022-12-15T00:17:22.108Z,83.00
2022-12-15T00:20:09.173Z,80.50
2022-12-15T00:22:56.335Z,77.30
2022-12-15T00:25:43.089Z,82.00
2022-12-15T00:28:30.100Z,74.50
2022-12-15T00:31:18.450Z,71.00
2022-12-15T00:34:05.667Z,75.50
2022-12-15T00:36:52.473Z,78.70
2022-12-15T00:39:21.198Z,75.70
2022-12-15T00:41:49.539Z,77.60
2022-12-15T00:44:20.740Z,78.00
2022-12-15T00:46:55.449Z,72.70
2022-12-15T00:49:45.528Z,70.50
2022-12-15T00:52:34.487Z,75.90
2022-12-15T00:55:23.419Z,74.30
2022-12-15T00:58:12.309Z,69.30
2022-12-15T01:00:59.733Z,72.10
2022-12-15T01:03:47.244Z,76.90
2022-12-15T01:06:38.123Z,75.80
2022-12-15T01:09:33.299Z,75.80
2022-12-15T01:12:20.134Z,73.30
2022-12-15T01:15:07.425Z,76.30
2022-12-15T01:17:54.428Z,69.50
2022-12-15T01:20:23.007Z,76.40
2022-12-15T01:22:55.999Z,72.80
2022-12-15T01:25:25.727Z,63.80
2022-12-15T01:27:54.001Z,71.90
2022-12-15T01:30:25.670Z,77.10
2022-12-15T01:32:54.358Z,71.10
2022-12-15T01:35:22.975Z,68.90
2022-12-15T01:37:51.528Z,68.00
2022-12-15T01:40:40.274Z,70.90
2022-12-15T01:43:24.725Z,72.90
2022-12-15T01:46:06.274Z,72.70
2022-12-15T01:48:38.307Z,72.90
2022-12-15T01:51:16.185Z,72.30
2022-12-15T01:53:53.997Z,71.70
2022-12-15T01:56:24.021Z,71.20
2022-12-15T01:58:55.404Z,73.60
2022-12-15T02:01:24.019Z,68.80
2022-12-15T02:03:52.467Z,68.00
2022-12-15T02:06:22.476Z,72.10
2022-12-15T02:08:54.880Z,78.10
2022-12-15T02:14:05.787Z,75.40
2022-12-15T02:17:02.153Z,76.90
2022-12-15T02:19:36.672Z,76.40
2022-12-15T02:22:22.336Z,66.00
2022-12-15T02:25:12.449Z,65.20
2022-12-15T02:28:04.170Z,66.10
2022-12-15T02:30:38.568Z,61.20
2022-12-15T02:33:08.923Z,69.90
2022-12-15T02:36:08.818Z,70.30
2022-12-15T02:38:39.372Z,64.60
2022-12-15T02:41:35.872Z,63.80
2022-12-15T02:44:20.851Z,69.30
2022-12-15T02:46:55.987Z,68.40
2022-12-15T02:50:01.353Z,70.70
2022-12-15T02:52:55.635Z,70.90
2022-12-15T02:56:00.799Z,65.60
2022-12-15T02:58:45.124Z,74.40
2022-12-15T03:01:33.676Z,70.40
2022-12-15T03:04:04.636Z,68.20
2022-12-15T03:06:32.962Z,81.50
2022-12-15T03:09:01.404Z,85.40
2022-12-15T03:11:30.699Z,84.80
2022-12-15T03:13:59.162Z,77.60
2022-12-15T03:16:27.561Z,88.50
2022-12-15T03:18:56.014Z,89.80
2022-12-15T03:21:24.199Z,97.70
2022-12-15T03:23:52.581Z,93.00
2022-12-15T03:26:21.222Z,89.40
2022-12-15T03:28:49.472Z,90.90
2022-12-15T03:31:17.917Z,93.70
2022-12-15T03:33:46.866Z,93.50
2022-12-15T03:36:15.117Z,96.80
2022-12-15T03:38:43.414Z,101.30
2022-12-15T03:41:12.194Z,103.70
2022-12-15T03:43:40.423Z,92.20
2022-12-15T03:46:08.786Z,91.00
2022-12-15T03:48:37.957Z,105.70
2022-12-15T03:51:06.564Z,98.40
2022-12-15T03:53:34.911Z,103.60
2022-12-15T03:56:03.413Z,91.80
2022-12-15T03:58:31.692Z,105.20
2022-12-15T04:01:09.278Z,95.30
2022-12-15T04:03:38.069Z,102.00
2022-12-15T04:06:06.581Z,97.90
2022-12-15T04:08:34.872Z,92.60
2022-12-15T04:11:03.184Z,92.90
2022-12-15T04:13:31.733Z,95.30
2022-12-15T04:16:02.928Z,93.10
2022-12-15T04:18:31.343Z,89.60
2022-12-15T04:20:59.563Z,86.40
2022-12-15T04:23:28.384Z,90.50
2022-12-15T04:26:15.507Z,90.70
2022-12-15T04:29:02.464Z,86.70
2022-12-15T04:31:52.319Z,85.50
2022-12-15T04:34:42.284Z,87.00
2022-12-15T04:37:32.641Z,86.00
2022-12-15T04:40:19.678Z,83.10
2022-12-15T04:43:07.295Z,83.60
2022-12-15T04:45:54.319Z,81.80
2022-12-15T04:48:41.347Z,75.20
2022-12-15T04:51:28.069Z,81.90
2022-12-15T04:54:15.168Z,85.00
2022-12-15T04:57:02.081Z,86.50
2022-12-15T04:59:49.159Z,84.30
2022-12-15T05:02:36.404Z,82.40
2022-12-15T05:05:23.887Z,83.30
2022-12-15T05:08:10.844Z,78.20
2022-12-15T05:10:57.918Z,74.30
2022-12-15T05:13:44.748Z,72.80
2022-12-15T05:16:31.708Z,73.70
2022-12-15T05:19:18.526Z,78.20
2022-12-15T05:22:05.549Z,78.50
2022-12-15T05:24:52.739Z,84.90
2022-12-15T05:27:39.924Z,90.50
2022-12-15T05:30:27.916Z,83.60
2022-12-15T05:32:56.240Z,70.80
2022-12-15T05:35:24.870Z,78.10
2022-12-15T05:37:53.727Z,76.10
2022-12-15T05:40:22.021Z,86.60
2022-12-15T05:42:50.495Z,85.80
2022-12-15T05:45:18.696Z,82.60
2022-12-15T05:47:51.631Z,88.80
2022-12-15T05:50:21.097Z,81.60
2022-12-15T05:52:49.939Z,82.10
2022-12-15T05:55:19.043Z,86.60
2022-12-15T05:57:54.417Z,82.70
2022-12-15T06:00:23.133Z,83.70
2022-12-15T06:02:51.414Z,86.30
2022-12-15T06:05:19.677Z,87.70
2022-12-15T06:07:47.929Z,84.70
2022-12-15T06:10:16.235Z,88.60
2022-12-15T06:12:44.455Z,93.90
2022-12-15T06:15:13.022Z,89.40
2022-12-15T06:17:41.253Z,94.50
2022-12-15T06:20:09.976Z,92.00
2022-12-15T06:22:38.976Z,89.10
2022-12-15T06:25:07.655Z,96.60
2022-12-15T06:27:37.850Z,96.20
2022-12-15T06:30:06.529Z,95.20
2022-12-15T06:32:36.389Z,87.60
2022-12-15T06:35:05.044Z,93.60
2022-12-15T06:37:33.308Z,95.80
2022-12-15T06:40:02.242Z,99.30
2022-12-15T06:42:30.595Z,90.40
2022-12-15T06:44:58.944Z,100.50
2022-12-15T06:47:27.203Z,93.80
2022-12-15T06:49:56.056Z,93.80
2022-12-15T06:52:24.243Z,92.00
2022-12-15T06:54:52.537Z,88.90
2022-12-15T06:57:20.997Z,91.00
2022-12-15T06:59:49.221Z,89.10
2022-12-15T07:02:22.341Z,86.80
2022-12-15T07:04:53.647Z,96.60
2022-12-15T07:07:21.979Z,96.60
2022-12-15T07:09:50.271Z,95.30
2022-12-15T07:12:18.837Z,96.80
2022-12-15T07:14:53.053Z,92.10
2022-12-15T07:17:22.183Z,97.40
2022-12-15T07:19:50.678Z,81.20
2022-12-15T07:22:20.433Z,87.30
2022-12-15T07:24:48.775Z,88.80
2022-12-15T07:27:18.234Z,90.90
2022-12-15T07:29:46.470Z,96.90
2022-12-15T07:32:15.904Z,102.90
2022-12-15T07:34:44.705Z,98.50
2022-12-15T07:37:13.366Z,106.40
2022-12-15T07:39:41.984Z,104.00
2022-12-15T07:42:10.381Z,113.40
2022-12-15T07:44:38.838Z,107.50
2022-12-15T07:47:07.266Z,111.40
2022-12-15T07:49:35.476Z,112.00
2022-12-15T07:52:04.439Z,111.10
2022-12-15T07:54:32.863Z,111.80
2022-12-15T07:57:02.791Z,112.90
2022-12-15T07:59:31.039Z,115.10
2022-12-15T08:02:00.800Z,109.30
2022-12-15T08:04:29.157Z,106.60
2022-12-15T08:06:58.599Z,111.40
2022-12-15T08:09:26.877Z,96.10
2022-12-15T08:11:55.194Z,91.60
2022-12-15T08:14:24.281Z,87.60
2022-12-15T08:16:53.641Z,82.80
2022-12-15T08:19:21.939Z,82.00
2022-12-15T08:21:50.856Z,79.80
2022-12-15T08:24:19.552Z,82.00
2022-12-15T08:26:50.503Z,87.70
2022-12-15T08:32:07.741Z,85.80
2022-12-15T08:34:36.285Z,92.90
2022-12-15T08:37:04.521Z,95.50
2022-12-15T08:39:32.781Z,114.90
2022-12-15T08:42:01.081Z,120.50
2022-12-15T08:44:29.324Z,128.20
2022-12-15T08:46:57.560Z,120.70
2022-12-15T08:49:25.927Z,114.30
2022-12-15T08:51:54.200Z,116.10
2022-12-15T08:54:22.607Z,103.60
2022-12-15T08:56:50.976Z,103.40
2022-12-15T08:59:19.549Z,96.60
2022-12-15T09:01:48.473Z,102.00
2022-12-15T09:04:17.316Z,95.60
2022-12-15T09:06:46.767Z,95.60
2022-12-15T09:09:19.818Z,90.10
2022-12-15T09:11:49.313Z,94.10
2022-12-15T09:14:18.965Z,95.90
2022-12-15T09:16:50.729Z,86.20
2022-12-15T09:19:19.318Z,83.70
2022-12-15T09:21:48.414Z,76.00
2022-12-15T09:24:25.841Z,77.40
2022-12-15T09:27:01.238Z,86.80
2022-12-15T09:29:29.570Z,91.50
2022-12-15T09:31:57.968Z,106.70
2022-12-15T09:34:26.469Z,111.10
2022-12-15T09:36:54.757Z,113.70
2022-12-15T09:39:23.742Z,105.20
2022-12-15T09:41:55.505Z,117.60
2022-12-15T09:44:26.144Z,105.70
2022-12-15T09:47:17.708Z,102.80
2022-12-15T09:49:56.510Z,91.20
2022-12-15T09:52:27.921Z,85.40
2022-12-15T09:54:57.997Z,79.30
2022-12-15T09:57:43.016Z,88.40
2022-12-15T10:00:26.113Z,92.80
2022-12-15T10:03:28.299Z,85.50
2022-12-15T10:06:16.026Z,87.40
2022-12-15T10:09:02.102Z,85.50
2022-12-15T10:11:50.980Z,81.30
2022-12-15T10:14:42.346Z,85.10
2022-12-15T10:17:33.729Z,87.00
2022-12-15T10:20:17.471Z,88.00
2022-12-15T10:22:46.013Z,97.50
2022-12-15T10:29:08.242Z,87.30
2022-12-15T10:31:51.471Z,78.50
2022-12-15T10:34:29.755Z,80.30
2022-12-15T10:36:59.001Z,76.20
2022-12-15T10:39:41.435Z,83.20
2022-12-15T10:44:50.273Z,86.40
2022-12-15T10:47:26.228Z,89.90
2022-12-15T10:49:56.566Z,80.80
2022-12-15T10:52:43.029Z,83.70
2022-12-15T10:55:38.835Z,86.50
2022-12-15T10:58:23.266Z,87.80
2022-12-15T11:01:15.309Z,84.10
2022-12-15T11:03:44.239Z,73.00
2022-12-15T11:06:20.479Z,77.30
2022-12-15T11:08:52.680Z,88.10
2022-12-15T11:11:53.795Z,79.80
2022-12-15T11:14:28.436Z,81.70
2022-12-15T11:16:59.402Z,78.80
2022-12-15T11:20:00.033Z,81.20
2022-12-15T11:23:03.166Z,79.00
2022-12-15T11:25:51.259Z,73.80
2022-12-15T11:28:38.901Z,69.40
2022-12-15T11:31:18.015Z,63.70
2022-12-15T11:33:46.413Z,64.10
2022-12-15T11:36:25.780Z,61.20
2022-12-15T11:39:03.048Z,60.60
2022-12-15T11:41:54.043Z,60.10
2022-12-15T11:44:32.634Z,61.00
2022-12-15T11:47:19.621Z,60.40
2022-12-15T11:50:29.704Z,59.30
2022-12-15T11:53:23.693Z,58.70
2022-12-15T11:56:19.265Z,60.40
2022-12-15T11:59:16.245Z,63.40
2022-12-15T12:02:02.943Z,58.90
2022-12-15T12:07:43.924Z,62.40
2022-12-15T12:10:46.415Z,57.10
2022-12-15T12:13:46.645Z,52.30
2022-12-15T12:16:29.263Z,54.80
2022-12-15T12:19:03.064Z,51.20
2022-12-15T12:21:47.051Z,48.80
2022-12-15T12:24:30.441Z,47.30
2022-12-15T12:27:09.850Z,49.00
2022-12-15T12:29:44.798Z,50.00
2022-12-15T12:32:40.467Z,45.20
2022-12-15T12:35:56.678Z,47.70
2022-12-15T12:38:31.437Z,42.40
2022-12-15T12:41:27.402Z,41.20
2022-12-15T12:44:00.901Z,41.40
2022-12-15T12:46:34.425Z,39.50
2022-12-15T12:49:13.461Z,42.20
2022-12-15T12:51:49.375Z,41.20
2022-12-15T12:54:36.090Z,39.70
2022-12-15T12:57:13.449Z,39.20
2022-12-15T12:59:56.276Z,43.00
2022-12-15T13:02:24.949Z,45.40
2022-12-15T13:05:00.609Z,41.50
2022-12-15T13:07:31.162Z,43.30
2022-12-15T13:10:08.641Z,45.60
2022-12-15T13:12:54.753Z,44.60
2022-12-15T13:15:29.457Z,48.40
2022-12-15T13:18:07.175Z,50.10
2022-12-15T13:20:37.738Z,47.10
2022-12-15T13:23:21.510Z,53.60
2022-12-15T13:25:55.885Z,55.70
2022-12-15T13:28:36.128Z,58.60
2022-12-15T13:31:17.141Z,54.30
2022-12-15T13:33:52.363Z,56.90
2022-12-15T13:36:39.565Z,61.90
2022-12-15T13:39:17.168Z,56.00
2022-12-15T13:44:52.725Z,61.30
2022-12-15T13:47:28.007Z,58.80
2022-12-15T13:50:27.148Z,60.10
2022-12-15T13:53:18.383Z,59.30
2022-12-15T13:56:17.493Z,62.50
2022-12-15T13:58:57.841Z,61.00
2022-12-15T14:01:32.758Z,58.20
2022-12-15T14:04:15.867Z,59.80
2022-12-15T14:09:42.202Z,60.10
2022-12-15T14:12:13.824Z,59.60
2022-12-15T14:14:49.616Z,59.90
2022-12-15T14:17:19.841Z,58.60
2022-12-15T14:19:51.006Z,57.00
2022-12-15T14:22:30.619Z,59.00
2022-12-15T14:25:03.594Z,63.40
2022-12-15T14:27:33.938Z,58.00
2022-12-15T14:30:17.615Z,62.70
2022-12-15T14:32:49.329Z,55.20
2022-12-15T14:35:27.762Z,64.50
2022-12-15T14:37:58.377Z,63.40
2022-12-15T14:40:29.856Z,63.90
2022-12-15T14:42:58.563Z,68.10
2022-12-15T14:45:32.505Z,71.20
2022-12-15T14:48:39.473Z,64.60
2022-12-15T14:51:01.610Z,72.20
2022-12-15T14:53:37.462Z,75.90
2022-12-15T14:56:33.410Z,76.80
2022-12-15T14:59:20.875Z,74.70
2022-12-15T15:02:10.288Z,78.00
2022-12-15T15:03:06.627Z,92.40
2022-12-15T15:04:39.102Z,74.00
2022-12-15T15:07:17.476Z,82.10
2022-12-15T15:09:46.442Z,81.90
2022-12-15T15:12:20.633Z,95.20
2022-12-15T15:14:59.228Z,75.40
2022-12-15T15:17:39.185Z,84.30
2022-12-15T15:20:22.392Z,92.00
2022-12-15T15:23:10.980Z,85.20
2022-12-15T15:25:42.726Z,92.20
2022-12-15T15:28:21.770Z,99.80
2022-12-15T15:30:51.526Z,103.40
2022-12-15T15:33:26.247Z,95.30
2022-12-15T15:36:00.017Z,112.60
2022-12-15T15:38:37.961Z,92.20
2022-12-15T15:41:19.994Z,108.50
2022-12-15T15:43:49.583Z,102.30
2022-12-15T15:46:25.579Z,92.60
2022-12-15T15:48:57.688Z,104.00
2022-12-15T15:51:27.450Z,93.40
2022-12-15T15:54:01.288Z,101.60
2022-12-15T15:56:31.270Z,104.90
2022-12-15T15:59:09.488Z,107.20
2022-12-15T16:01:37.848Z,102.30
2022-12-15T16:04:06.914Z,99.20
2022-12-15T16:06:35.930Z,101.30
2022-12-15T16:09:07.143Z,95.80
2022-12-15T16:11:36.594Z,109.50
2022-12-15T16:14:11.276Z,104.50
2022-12-15T16:16:41.923Z,102.50
2022-12-15T16:19:12.205Z,97.10
2022-12-15T16:21:43.054Z,101.40
2022-12-15T16:24:17.713Z,112.00
2022-12-15T16:26:49.725Z,106.00
2022-12-15T16:29:20.528Z,106.00
2022-12-15T16:31:49.223Z,113.10
2022-12-15T16:34:19.307Z,115.60
2022-12-15T16:36:47.888Z,112.90
2022-12-15T16:39:31.278Z,117.20
2022-12-15T16:41:59.711Z,109.50
2022-12-15T16:44:29.563Z,116.70
2022-12-15T16:46:59.121Z,104.90
2022-12-15T16:49:33.911Z,112.60
2022-12-15T16:52:15.172Z,111.70
2022-12-15T16:54:46.805Z,107.30
2022-12-15T16:57:15.530Z,118.50
2022-12-15T16:59:43.796Z,116.20
2022-12-15T17:02:28.645Z,118.50
2022-12-15T17:04:57.515Z,96.50
2022-12-15T17:07:27.859Z,109.60
2022-12-15T17:09:56.941Z,111.10
2022-12-15T17:12:25.360Z,115.80
2022-12-15T17:14:53.657Z,104.50
2022-12-15T17:17:22.020Z,112.50
2022-12-15T17:20:27.945Z,112.60
2022-12-15T17:22:40.418Z,114.40
2022-12-15T17:25:32.062Z,103.00
2022-12-15T17:28:21.040Z,107.80
2022-12-15T17:30:51.707Z,112.00
2022-12-15T17:33:22.673Z,103.40
2022-12-15T17:36:01.544Z,109.60
2022-12-15T17:38:30.132Z,105.40
2022-12-15T17:40:58.448Z,109.20
2022-12-15T17:43:32.058Z,113.10
2022-12-15T17:46:04.154Z,100.50
2022-12-15T17:48:33.042Z,113.60
2022-12-15T17:51:01.316Z,109.20
2022-12-15T17:53:31.000Z,108.30
2022-12-15T17:55:59.511Z,108.30
2022-12-15T17:58:27.811Z,119.90
2022-12-15T18:00:56.534Z,104.10
2022-12-15T18:03:25.085Z,112.10
2022-12-15T18:05:53.845Z,116.20
2022-12-15T18:08:25.651Z,105.60
2022-12-15T18:10:58.095Z,97.80
2022-12-15T18:13:34.884Z,115.30
2022-12-15T18:16:04.053Z,123.30
2022-12-15T18:18:32.673Z,114.60
2022-12-15T18:21:08.142Z,107.60
2022-12-15T18:23:37.370Z,112.00
2022-12-15T18:26:05.930Z,107.00
2022-12-15T18:28:35.706Z,105.90
2022-12-15T18:31:14.986Z,107.60
2022-12-15T18:33:44.611Z,110.60
2022-12-15T18:36:13.719Z,102.50
2022-12-15T18:38:42.577Z,100.50
2022-12-15T18:41:17.332Z,97.90
2022-12-15T18:43:47.813Z,101.00
2022-12-15T18:46:18.907Z,104.30
2022-12-15T18:48:47.450Z,101.40
2022-12-15T18:51:18.917Z,100.60
2022-12-15T18:53:51.154Z,103.40
2022-12-15T18:58:50.088Z,108.50
2022-12-15T19:01:18.713Z,106.90
2022-12-15T19:03:47.361Z,108.80
2022-12-15T19:06:35.025Z,112.60
2022-12-15T19:09:06.377Z,104.40
2022-12-15T19:11:34.775Z,102.90
2022-12-15T19:14:24.998Z,102.90
2022-12-15T19:17:12.610Z,104.10
2022-12-15T19:19:59.506Z,102.70
2022-12-15T19:22:29.679Z,96.50
2022-12-15T19:24:59.168Z,101.00
2022-12-15T19:27:27.650Z,98.80
2022-12-15T19:29:55.997Z,102.90
2022-12-15T19:32:24.444Z,99.00
2022-12-15T19:34:52.698Z,103.80
2022-12-15T19:37:30.212Z,101.00
2022-12-15T19:40:01.096Z,99.80
2022-12-15T19:43:39.589Z,93.30
2022-12-15T19:46:17.382Z,92.60
2022-12-15T19:48:46.362Z,98.30
2022-12-15T19:51:21.159Z,94.00
2022-12-15T19:53:49.891Z,91.80
2022-12-15T19:56:21.991Z,92.10
2022-12-15T19:58:50.546Z,93.20
2022-12-15T20:01:21.344Z,87.90
2022-12-15T20:03:52.892Z,99.00
2022-12-15T20:06:24.725Z,92.70
2022-12-15T20:08:55.969Z,103.40
2022-12-15T20:11:30.340Z,100.30
2022-12-15T20:13:59.060Z,99.80
2022-12-15T20:16:27.431Z,116.40
2022-12-15T20:18:56.250Z,103.10
2022-12-15T20:21:31.590Z,98.10
2022-12-15T20:24:15.140Z,102.80
2022-12-15T20:26:45.776Z,99.10
2022-12-15T20:29:28.368Z,101.80
2022-12-15T20:34:26.264Z,93.60
2022-12-15T20:36:54.512Z,81.10
2022-12-15T20:39:26.955Z,88.90
2022-12-15T20:41:56.568Z,87.00
2022-12-15T20:44:24.891Z,91.40
2022-12-15T20:46:53.679Z,92.40
2022-12-15T20:49:22.784Z,80.50
2022-12-15T20:51:51.872Z,88.80
2022-12-15T20:54:22.529Z,86.40
2022-12-15T20:56:51.028Z,86.50
2022-12-15T20:59:19.509Z,84.80
2022-12-15T21:01:48.209Z,89.90
2022-12-15T21:04:25.032Z,83.70
2022-12-15T21:06:55.178Z,87.80
2022-12-15T21:09:24.636Z,90.00
2022-12-15T21:11:55.144Z,84.60
2022-12-15T21:14:24.658Z,85.70
2022-12-15T21:16:53.028Z,79.40
2022-12-15T21:19:22.568Z,84.60
2022-12-15T21:21:54.780Z,76.60
2022-12-15T21:24:27.047Z,80.10
2022-12-15T21:26:56.228Z,74.90
2022-12-15T21:29:28.764Z,74.20
2022-12-15T21:31:57.537Z,79.90
2022-12-15T21:34:25.872Z,81.30
2022-12-15T21:36:54.994Z,82.40
2022-12-15T21:39:31.090Z,81.60
2022-12-15T21:42:01.893Z,84.60
2022-12-15T21:44:30.299Z,76.20
2022-12-15T21:46:58.606Z,81.00
2022-12-15T21:49:27.265Z,79.60
2022-12-15T21:52:01.139Z,71.60
2022-12-15T21:54:35.187Z,80.10
2022-12-15T21:57:03.881Z,79.40
2022-12-15T21:59:32.986Z,72.40
2022-12-15T22:02:01.841Z,82.80
2022-12-15T22:04:33.603Z,75.70
2022-12-15T22:07:02.424Z,70.30
2022-12-15T22:09:30.666Z,66.50
2022-12-15T22:11:59.343Z,67.60
2022-12-15T22:14:33.871Z,69.70
2022-12-15T22:17:14.448Z,69.20
2022-12-15T22:19:42.750Z,65.40
2022-12-15T22:22:12.391Z,69.60
2022-12-15T22:24:41.000Z,64.70
2022-12-15T22:27:21.243Z,68.70
2022-12-15T22:29:50.484Z,66.80
2022-12-15T22:32:18.728Z,73.50
2022-12-15T22:34:47.157Z,67.50
2022-12-15T22:37:15.871Z,63.30
2022-12-15T22:39:44.192Z,71.60
2022-12-15T22:42:16.757Z,65.50
2022-12-15T22:44:45.850Z,63.10
2022-12-15T22:47:14.164Z,72.40
2022-12-15T22:49:42.699Z,63.70
2022-12-15T22:52:19.783Z,65.10
2022-12-15T22:54:48.598Z,65.10
2022-12-15T22:57:21.603Z,64.40
2022-12-15T23:00:05.764Z,67.50
2022-12-15T23:02:40.825Z,63.10
2022-12-15T23:05:12.058Z,64.90
2022-12-15T23:07:41.509Z,62.70
2022-12-15T23:10:31.207Z,67.90
2022-12-15T23:12:59.676Z,67.50
2022-12-15T23:15:47.726Z,64.50
2022-12-15T23:18:16.388Z,63.00
2022-12-15T23:20:44.602Z,68.70
2022-12-15T23:23:12.825Z,63.00
2022-12-15T23:25:41.234Z,63.70
2022-12-15T23:28:09.717Z,64.50
2022-12-15T23:30:38.112Z,69.50
2022-12-15T23:33:06.433Z,65.80
2022-12-15T23:35:35.772Z,75.30
2022-12-15T23:38:03.986Z,67.60
2022-12-15T23:40:32.313Z,73.30
2022-12-15T23:43:00.795Z,65.70
2022-12-15T23:45:29.267Z,74.70
2022-12-15T23:47:57.518Z,74.90
2022-12-15T23:50:25.737Z,67.80
2022-12-15T23:52:54.030Z,73.40
2022-12-15T23:55:23.114Z,76.90
2022-12-15T23:57:51.844Z,75.40
